createdAt,value
2019-04-05T00:01:09.579Z,141.90
2019-04-05T00:03:36.531Z,141.68
2019-04-05T00:06:03.701Z,140.60
2019-04-05T00:08:30.996Z,142.15
2019-04-05T00:11:00.137Z,140.32
2019-04-05T00:13:27.078Z,142.37
2019-04-05T00:15:54.071Z,141.10
2019-04-05T00:18:21.168Z,142.47
2019-04-05T00:20:48.128Z,141.95
2019-04-05T00:23:15.118Z,142.18
2019-04-05T00:25:42.068Z,141.18
2019-04-05T00:28:09.007Z,143.05
2019-04-05T00:30:36.062Z,141.92
2019-04-05T00:33:03.219Z,141.60
2019-04-05T00:35:30.185Z,143.57
2019-04-05T00:37:57.195Z,142.98
2019-04-05T00:40:24.133Z,141.35
2019-04-05T00:42:51.139Z,142.10
2019-04-05T00:45:27.549Z,146.10
2019-04-05T00:47:47.036Z,144.13
2019-04-05T00:50:14.257Z,144.45
2019-04-05T00:52:41.273Z,142.07
2019-04-05T00:55:08.824Z,142.10
2019-04-05T00:57:35.989Z,143.32
2019-04-05T01:00:04.366Z,144.40
2019-04-05T01:02:32.932Z,144.10
2019-04-05T01:04:59.891Z,143.05
2019-04-05T01:07:26.868Z,143.17
2019-04-05T01:09:54.030Z,143.55
2019-04-05T01:12:22.132Z,146.30
2019-04-05T01:14:49.137Z,145.20
2019-04-05T01:17:24.756Z,144.32
2019-04-05T01:19:47.260Z,144.17
2019-04-05T01:22:15.259Z,141.95
2019-04-05T01:24:43.476Z,143.75
2019-04-05T01:27:12.231Z,144.77
2019-04-05T01:29:39.202Z,144.47
2019-04-05T01:32:06.152Z,144.72
2019-04-05T01:34:33.110Z,144.82
2019-04-05T01:37:00.193Z,146.18
2019-04-05T01:39:27.168Z,146.05
2019-04-05T01:41:54.515Z,146.98
2019-04-05T01:44:23.454Z,146.50
2019-04-05T01:46:50.392Z,146.43
2019-04-05T01:49:18.745Z,147.25
2019-04-05T01:51:45.803Z,147.40
2019-04-05T01:54:12.762Z,143.97
2019-04-05T01:56:39.736Z,144.60
2019-04-05T01:59:06.787Z,145.80
2019-04-05T02:01:33.756Z,146.95
2019-04-05T02:04:00.706Z,145.17
2019-04-05T02:06:27.830Z,144.70
2019-04-05T02:08:54.777Z,147.53
2019-04-05T02:11:21.940Z,146.20
2019-04-05T02:13:48.923Z,146.30
2019-04-05T02:16:15.889Z,147.20
2019-04-05T02:18:44.870Z,144.43
2019-04-05T02:21:11.838Z,146.90
2019-04-05T02:23:40.130Z,145.30
2019-04-05T02:26:07.075Z,145.30
2019-04-05T02:28:34.063Z,147.17
2019-04-05T02:31:01.054Z,145.00
2019-04-05T02:33:28.070Z,145.82
2019-04-05T02:35:55.031Z,147.30
2019-04-05T02:38:21.988Z,143.22
2019-04-05T02:40:50.731Z,146.37
2019-04-05T02:43:20.222Z,148.05
2019-04-05T02:45:49.820Z,146.45
2019-04-05T02:48:18.376Z,145.55
2019-04-05T02:50:49.697Z,145.90
2019-04-05T02:53:18.580Z,146.60
2019-04-05T02:55:46.864Z,145.38
2019-04-05T02:58:14.343Z,145.90
2019-04-05T03:00:44.991Z,146.25
2019-04-05T03:03:13.697Z,147.87
2019-04-05T03:05:41.278Z,147.07
2019-04-05T03:08:08.532Z,145.62
2019-04-05T03:11:04.630Z,145.45
2019-04-05T03:13:36.106Z,147.35
2019-04-05T03:16:07.984Z,145.55
2019-04-05T03:18:38.956Z,145.82
2019-04-05T03:21:10.565Z,145.47
2019-04-05T03:23:41.313Z,145.82
2019-04-05T03:26:11.740Z,148.28
2019-04-05T03:28:40.679Z,147.20
2019-04-05T03:31:08.633Z,146.30
2019-04-05T03:33:36.330Z,146.60
2019-04-05T03:36:03.577Z,147.02
2019-04-05T03:38:31.059Z,148.20
2019-04-05T03:40:58.139Z,146.85
2019-04-05T03:43:25.289Z,148.38
2019-04-05T03:45:52.670Z,151.57
2019-04-05T03:48:21.888Z,147.15
2019-04-05T03:50:48.840Z,147.47
2019-04-05T03:53:15.797Z,149.00
2019-04-05T03:55:42.766Z,147.22
2019-04-05T03:58:10.377Z,149.87
2019-04-05T04:00:37.972Z,148.87
2019-04-05T04:03:05.492Z,148.40
2019-04-05T04:05:33.206Z,148.75
2019-04-05T04:08:00.381Z,148.22
2019-04-05T04:10:27.785Z,149.50
2019-04-05T04:12:54.945Z,146.87
2019-04-05T04:15:23.754Z,148.25
2019-04-05T04:17:51.297Z,147.82
2019-04-05T04:20:43.709Z,148.45
2019-04-05T04:23:11.900Z,148.90
2019-04-05T04:25:39.743Z,149.68
2019-04-05T04:28:06.788Z,146.62
2019-04-05T04:30:35.413Z,147.47
2019-04-05T04:33:02.699Z,148.15
2019-04-05T04:35:30.642Z,146.50
2019-04-05T04:37:58.416Z,147.60
2019-04-05T04:40:25.757Z,147.72
2019-04-05T04:42:52.944Z,149.20
2019-04-05T04:45:20.020Z,149.35
2019-04-05T04:47:47.525Z,149.70
2019-04-05T04:50:15.300Z,149.82
2019-04-05T04:52:44.019Z,149.82
2019-04-05T04:55:11.474Z,147.00
2019-04-05T04:57:38.484Z,145.85
2019-04-05T05:00:09.712Z,146.95
2019-04-05T05:02:36.728Z,150.40
2019-04-05T05:05:05.548Z,149.07
2019-04-05T05:07:32.959Z,148.95
2019-04-05T05:10:02.997Z,148.45
2019-04-05T05:12:29.039Z,151.07
2019-04-05T05:14:56.103Z,149.27
2019-04-05T05:17:24.706Z,149.82
2019-04-05T05:19:52.266Z,148.60
2019-04-05T05:22:20.440Z,148.72
2019-04-05T05:24:47.409Z,149.75
2019-04-05T05:27:14.575Z,151.37
2019-04-05T05:29:44.113Z,153.95
2019-04-05T05:32:24.293Z,150.07
2019-04-05T05:42:12.087Z,147.07
2019-04-05T05:44:39.253Z,148.30
2019-04-05T05:47:06.342Z,147.98
2019-04-05T05:49:34.774Z,149.55
2019-04-05T05:52:02.494Z,148.32
2019-04-05T05:54:31.331Z,149.27
2019-04-05T05:56:58.525Z,149.68
2019-04-05T05:59:29.669Z,148.10
2019-04-05T06:01:54.932Z,148.68
2019-04-05T06:04:23.031Z,148.30
2019-04-05T06:06:50.089Z,151.53
2019-04-05T06:09:17.114Z,152.82
2019-04-05T06:11:44.328Z,149.57
2019-04-05T06:14:12.616Z,150.72
2019-04-05T06:16:46.186Z,150.42
2019-04-05T06:19:08.621Z,148.20
2019-04-05T06:21:35.653Z,150.47
2019-04-05T06:24:05.227Z,150.57
2019-04-05T06:26:31.930Z,149.30
2019-04-05T06:28:59.048Z,149.50
2019-04-05T06:31:26.063Z,149.82
2019-04-05T06:33:53.119Z,148.47
2019-04-05T06:36:20.151Z,148.87
2019-04-05T06:38:47.300Z,147.53
2019-04-05T06:41:14.382Z,150.00
2019-04-05T06:43:41.455Z,149.60
2019-04-05T06:46:08.582Z,150.22
2019-04-05T06:48:35.873Z,149.95
2019-04-05T06:51:10.105Z,151.20
2019-04-05T06:53:37.193Z,150.62
2019-04-05T06:56:04.372Z,149.70
2019-04-05T06:58:31.505Z,150.45
2019-04-05T07:00:58.717Z,149.77
2019-04-05T07:03:27.204Z,150.87
2019-04-05T07:05:55.753Z,151.07
2019-04-05T07:08:23.086Z,149.80
2019-04-05T07:10:50.239Z,150.45
2019-04-05T07:13:17.277Z,148.82
2019-04-05T07:15:44.336Z,149.23
2019-04-05T07:18:11.702Z,151.25
2019-04-05T07:20:39.232Z,152.22
2019-04-05T07:23:08.874Z,152.02
2019-04-05T07:25:36.463Z,152.85
2019-04-05T07:28:03.815Z,151.47
2019-04-05T07:30:32.727Z,151.42
2019-04-05T07:33:00.026Z,154.45
2019-04-05T07:35:33.733Z,152.57
2019-04-05T07:37:57.380Z,151.90
2019-04-05T07:40:25.690Z,150.85
2019-04-05T07:42:52.679Z,150.35
2019-04-05T07:45:19.911Z,152.22
2019-04-05T07:47:47.136Z,151.53
2019-04-05T07:50:14.345Z,151.20
2019-04-05T07:52:41.427Z,151.18
2019-04-05T07:55:09.077Z,151.40
2019-04-05T07:57:37.232Z,151.85
2019-04-05T08:00:06.578Z,152.17
2019-04-05T08:02:33.838Z,151.63
2019-04-05T08:05:02.789Z,151.25
2019-04-05T08:07:36.906Z,150.90
2019-04-05T08:10:12.201Z,153.80
2019-04-05T08:12:41.681Z,150.95
2019-04-05T08:15:10.676Z,148.65
2019-04-05T08:17:37.861Z,149.05
2019-04-05T08:20:07.892Z,149.12
2019-04-05T08:22:35.330Z,150.60
2019-04-05T08:25:02.601Z,149.30
2019-04-05T08:27:30.838Z,149.20
2019-04-05T08:29:58.429Z,151.02
2019-04-05T08:32:27.583Z,150.00
2019-04-05T08:34:55.724Z,150.57
2019-04-05T08:37:24.212Z,150.50
2019-04-05T08:39:51.814Z,150.93
2019-04-05T08:42:19.059Z,149.45
2019-04-05T08:44:46.093Z,151.02
2019-04-05T08:47:13.148Z,151.57
2019-04-05T08:49:40.251Z,151.18
2019-04-05T08:52:07.407Z,149.97
2019-04-05T08:54:36.766Z,150.10
2019-04-05T08:57:04.373Z,151.93
2019-04-05T08:59:31.530Z,147.93
2019-04-05T09:01:58.678Z,147.95
2019-04-05T09:04:25.783Z,150.90
2019-04-05T09:06:53.134Z,150.65
2019-04-05T09:13:10.144Z,145.43
2019-04-05T09:15:38.922Z,147.07
2019-04-05T09:18:06.032Z,146.50
2019-04-05T09:20:33.146Z,149.77
2019-04-05T09:23:01.444Z,147.93
2019-04-05T09:25:29.030Z,149.85
2019-04-05T09:27:57.963Z,148.32
2019-04-05T09:30:25.041Z,147.93
2019-04-05T09:32:52.326Z,148.35
2019-04-05T09:35:19.528Z,148.95
2019-04-05T09:37:46.862Z,147.72
2019-04-05T09:40:14.241Z,148.50
2019-04-05T09:42:43.195Z,147.22
2019-04-05T09:45:12.093Z,148.32
2019-04-05T09:47:39.121Z,146.22
2019-04-05T09:50:06.988Z,144.93
2019-04-05T09:52:34.048Z,146.18
2019-04-05T09:55:01.929Z,147.98
2019-04-05T09:57:29.281Z,145.75
2019-04-05T09:59:56.457Z,145.65
2019-04-05T10:02:23.505Z,146.95
2019-04-05T10:04:50.708Z,148.75
2019-04-05T10:07:19.556Z,146.10
2019-04-05T10:09:47.996Z,145.30
2019-04-05T10:12:16.039Z,142.50
2019-04-05T10:14:43.143Z,143.17
2019-04-05T10:17:11.303Z,142.13
2019-04-05T10:19:49.245Z,141.70
2019-04-05T10:22:10.636Z,143.72
2019-04-05T10:24:37.688Z,142.28
2019-04-05T10:27:04.714Z,142.90
2019-04-05T10:29:31.935Z,143.50
2019-04-05T10:32:00.147Z,144.15
2019-04-05T10:34:27.174Z,144.87
2019-04-05T10:36:54.209Z,144.85
2019-04-05T10:39:21.273Z,146.32
2019-04-05T10:41:48.625Z,143.60
2019-04-05T10:44:16.188Z,143.82
2019-04-05T10:46:43.258Z,147.72
2019-04-05T10:49:11.332Z,145.20
2019-04-05T10:51:38.401Z,146.70
2019-04-05T10:54:09.404Z,146.20
2019-04-05T10:56:39.354Z,144.32
2019-04-05T10:59:13.249Z,144.75
2019-04-05T11:01:41.095Z,146.62
2019-04-05T11:04:16.872Z,146.55
2019-04-05T11:06:45.710Z,145.53
2019-04-05T11:09:20.233Z,145.22
2019-04-05T11:11:47.290Z,145.57
2019-04-05T11:14:14.485Z,144.28
2019-04-05T11:16:42.727Z,147.50
2019-04-05T11:19:11.516Z,144.53
2019-04-05T11:21:40.433Z,145.72
2019-04-05T11:24:10.662Z,145.10
2019-04-05T11:26:38.126Z,142.50
2019-04-05T11:29:05.269Z,145.02
2019-04-05T11:31:32.339Z,146.02
2019-04-05T11:34:00.758Z,144.82
2019-04-05T11:36:36.582Z,147.90
2019-04-05T11:39:06.669Z,145.43
2019-04-05T11:41:46.349Z,144.30
2019-04-05T11:44:15.767Z,143.43
2019-04-05T11:46:49.146Z,149.38
2019-04-05T11:49:16.904Z,142.62
2019-04-05T11:51:45.107Z,144.70
2019-04-05T11:54:13.855Z,145.57
2019-04-05T11:56:41.192Z,143.28
2019-04-05T11:59:15.557Z,146.05
2019-04-05T12:02:16.969Z,142.57
2019-04-05T12:04:47.842Z,145.17
2019-04-05T12:07:14.895Z,144.90
2019-04-05T12:09:42.739Z,146.00
2019-04-05T12:12:09.815Z,145.30
2019-04-05T12:14:38.680Z,146.55
2019-04-05T12:17:06.222Z,143.47
2019-04-05T12:19:33.626Z,145.30
2019-04-05T12:22:04.582Z,145.07
2019-04-05T12:24:47.762Z,144.87
2019-04-05T12:27:36.626Z,145.28
2019-04-05T12:30:04.594Z,146.68
2019-04-05T12:32:41.085Z,144.97
2019-04-05T12:35:04.918Z,143.82
2019-04-05T12:37:32.206Z,144.60
2019-04-05T12:40:00.748Z,147.53
2019-04-05T12:42:27.873Z,143.47
2019-04-05T12:44:57.415Z,143.32
2019-04-05T12:47:27.405Z,144.57
2019-04-05T12:49:57.096Z,144.25
2019-04-05T12:52:28.960Z,147.30
2019-04-05T12:54:55.998Z,144.37
2019-04-05T12:57:23.245Z,144.95
2019-04-05T12:59:55.606Z,144.55
2019-04-05T13:02:33.263Z,144.68
2019-04-05T13:04:53.732Z,147.72
2019-04-05T13:07:22.799Z,146.85
2019-04-05T13:09:53.843Z,147.57
2019-04-05T13:12:26.304Z,148.00
2019-04-05T13:14:59.706Z,146.15
2019-04-05T13:17:24.019Z,147.47
2019-04-05T13:20:00.879Z,146.62
2019-04-05T13:22:33.063Z,146.98
2019-04-05T13:25:02.562Z,145.75
2019-04-05T13:27:30.865Z,145.87
2019-04-05T13:29:57.937Z,147.28
2019-04-05T13:32:27.746Z,147.32
2019-04-05T13:34:56.458Z,146.37
2019-04-05T13:37:28.541Z,147.40
2019-04-05T13:40:00.026Z,147.90
2019-04-05T13:42:31.258Z,145.80
2019-04-05T13:45:01.783Z,144.82
2019-04-05T13:47:32.982Z,145.20
2019-04-05T13:49:59.702Z,145.25
2019-04-05T13:52:28.702Z,147.65
2019-04-05T13:54:57.493Z,143.45
2019-04-05T13:57:25.058Z,143.45
2019-04-05T13:59:52.148Z,146.05
2019-04-05T14:02:21.662Z,144.45
2019-04-05T14:04:53.434Z,145.65
2019-04-05T14:07:25.218Z,144.22
2019-04-05T14:09:52.364Z,148.02
2019-04-05T14:12:19.651Z,148.47
2019-04-05T14:14:51.006Z,150.65
2019-04-05T14:17:17.022Z,156.87
2019-04-05T14:19:46.733Z,149.60
2019-04-05T14:22:17.883Z,150.65
2019-04-05T14:24:45.087Z,152.53
2019-04-05T14:27:20.557Z,150.05
2019-04-05T14:29:54.974Z,151.42
2019-04-05T14:32:55.419Z,152.10
2019-04-05T14:35:25.321Z,150.38
2019-04-05T14:37:54.617Z,152.35
2019-04-05T14:40:22.933Z,152.30
2019-04-05T14:42:50.003Z,150.15
2019-04-05T14:45:18.197Z,151.60
2019-04-05T14:47:45.520Z,153.35
2019-04-05T14:50:15.947Z,151.95
2019-04-05T14:52:45.913Z,152.22
2019-04-05T14:55:14.765Z,152.82
2019-04-05T14:57:41.805Z,152.53
2019-04-05T15:00:09.850Z,151.65
2019-04-05T15:02:37.079Z,153.18
2019-04-05T15:05:05.987Z,154.20
2019-04-05T15:07:34.384Z,155.03
2019-04-05T15:10:27.939Z,153.70
2019-04-05T15:13:00.270Z,148.82
2019-04-05T15:15:27.785Z,151.87
2019-04-05T15:17:56.680Z,153.85
2019-04-05T15:20:25.858Z,150.32
2019-04-05T15:22:52.929Z,150.72
2019-04-05T15:25:21.793Z,152.15
2019-04-05T15:27:52.569Z,157.95
2019-04-05T15:30:18.470Z,149.90
2019-04-05T15:32:45.622Z,159.80
2019-04-05T15:35:12.957Z,149.87
2019-04-05T15:37:40.135Z,153.07
2019-04-05T15:40:09.416Z,152.78
2019-04-05T15:42:36.572Z,151.02
2019-04-05T15:45:05.939Z,151.18
2019-04-05T15:47:34.305Z,154.90
2019-04-05T15:50:01.452Z,149.42
2019-04-05T15:52:31.852Z,151.60
2019-04-05T15:55:06.014Z,153.50
2019-04-05T15:57:34.288Z,154.10
2019-04-05T16:00:03.795Z,152.27
2019-04-05T16:02:33.174Z,151.90
2019-04-05T16:05:00.675Z,155.85
2019-04-05T16:07:27.862Z,152.20
2019-04-05T16:09:55.308Z,151.80
2019-04-05T16:12:22.477Z,155.43
2019-04-05T16:14:49.516Z,152.10
2019-04-05T16:17:16.616Z,155.67
2019-04-05T16:19:43.652Z,154.63
2019-04-05T16:22:10.774Z,152.80
2019-04-05T16:24:37.861Z,154.63
2019-04-05T16:27:05.032Z,152.22
2019-04-05T16:29:32.092Z,151.87
2019-04-05T16:31:59.485Z,153.10
2019-04-05T16:34:26.500Z,155.07
2019-04-05T16:36:53.565Z,151.57
2019-04-05T16:39:20.743Z,153.82
2019-04-05T16:41:47.840Z,152.43
2019-04-05T16:44:16.313Z,151.02
2019-04-05T16:46:43.413Z,152.78
2019-04-05T16:49:11.727Z,153.97
2019-04-05T16:51:38.776Z,151.05
2019-04-05T16:54:05.838Z,152.40
2019-04-05T16:56:33.104Z,153.32
2019-04-05T16:59:03.129Z,149.53
2019-04-05T17:01:30.242Z,154.30
2019-04-05T17:03:57.598Z,152.97
2019-04-05T17:06:24.786Z,153.23
2019-04-05T17:08:52.110Z,154.63
2019-04-05T17:11:19.181Z,165.00
2019-04-05T17:13:46.288Z,157.10
2019-04-05T17:16:13.792Z,153.53
2019-04-05T17:18:42.909Z,154.07
2019-04-05T17:21:10.351Z,151.78
2019-04-05T17:23:38.857Z,154.68
2019-04-05T17:26:08.996Z,159.18
2019-04-05T17:28:36.283Z,155.57
2019-04-05T17:31:03.725Z,170.05
2019-04-05T17:33:30.753Z,160.00
2019-04-05T17:36:04.715Z,157.70
2019-04-05T17:38:32.624Z,155.37
2019-04-05T17:40:59.815Z,154.30
2019-04-05T17:43:28.164Z,151.82
2019-04-05T17:45:57.945Z,154.65
2019-04-05T17:48:26.335Z,154.40
2019-04-05T17:50:53.397Z,155.65
2019-04-05T17:53:20.687Z,154.42
2019-04-05T17:55:49.158Z,155.67
2019-04-05T17:58:17.817Z,153.47
2019-04-05T18:00:47.351Z,150.65
2019-04-05T18:03:17.257Z,155.80
2019-04-05T18:05:46.401Z,151.93
2019-04-05T18:08:13.965Z,153.78
2019-04-05T18:10:41.130Z,154.20
2019-04-05T18:13:08.268Z,153.40
2019-04-05T18:15:35.910Z,155.37
2019-04-05T18:18:03.078Z,154.55
2019-04-05T18:20:33.833Z,150.70
2019-04-05T18:23:00.927Z,151.65
2019-04-05T18:25:28.150Z,153.60
2019-04-05T18:27:55.287Z,154.30
2019-04-05T18:30:24.577Z,154.53
2019-04-05T18:32:57.479Z,155.10
2019-04-05T18:35:24.555Z,154.05
2019-04-05T18:37:52.183Z,157.70
2019-04-05T18:40:19.272Z,153.50
2019-04-05T18:42:53.515Z,156.43
2019-04-05T18:45:20.605Z,152.40
2019-04-05T18:47:47.905Z,152.87
2019-04-05T18:50:15.360Z,155.10
2019-04-05T18:52:42.570Z,152.12
2019-04-05T18:55:11.131Z,151.00
2019-04-05T18:57:38.285Z,151.57
2019-04-05T19:00:05.511Z,152.30
2019-04-05T19:02:37.084Z,154.47
2019-04-05T19:05:05.697Z,154.53
2019-04-05T19:07:33.271Z,151.72
2019-04-05T19:10:00.407Z,152.10
2019-04-05T19:12:29.421Z,152.45
2019-04-05T19:14:57.825Z,151.50
2019-04-05T19:17:28.896Z,150.53
2019-04-05T19:19:59.963Z,149.05
2019-04-05T19:22:31.547Z,149.80
2019-04-05T19:24:58.708Z,149.75
2019-04-05T19:27:32.142Z,148.82
2019-04-05T19:50:09.015Z,149.05
2019-04-05T19:52:36.134Z,149.42
2019-04-05T19:55:04.296Z,150.20
2019-04-05T19:57:31.353Z,152.75
2019-04-05T20:00:00.449Z,154.25
2019-04-05T20:02:27.765Z,154.15
2019-04-05T20:04:56.051Z,153.12
2019-04-05T20:07:24.330Z,153.45
2019-04-05T20:09:54.725Z,151.80
2019-04-05T20:12:21.848Z,151.68
2019-04-05T20:14:49.081Z,150.68
2019-04-05T20:17:18.380Z,152.17
2019-04-05T20:19:49.628Z,149.93
2019-04-05T20:22:16.943Z,149.77
2019-04-05T20:24:45.318Z,150.32
2019-04-05T20:27:16.514Z,152.53
2019-04-05T20:29:43.788Z,149.50
2019-04-05T20:32:12.255Z,152.30
2019-04-05T20:34:39.545Z,150.12
2019-04-05T20:37:07.759Z,149.30
2019-04-05T20:39:35.020Z,151.45
2019-04-05T20:42:02.122Z,151.35
2019-04-05T20:44:29.398Z,150.30
2019-04-05T20:46:56.941Z,149.90
2019-04-05T20:49:24.123Z,153.45
2019-04-05T20:51:54.046Z,152.07
2019-04-05T20:54:24.838Z,148.15
2019-04-05T20:56:50.809Z,149.82
2019-04-05T20:59:18.021Z,150.82
2019-04-05T21:01:47.300Z,150.18
2019-04-05T21:04:16.298Z,152.30
2019-04-05T21:06:43.528Z,151.93
2019-04-05T21:09:10.709Z,153.62
2019-04-05T21:11:38.195Z,153.65
2019-04-05T21:14:08.156Z,152.75
2019-04-05T21:16:35.231Z,152.20
2019-04-05T21:19:04.874Z,150.03
2019-04-05T21:21:31.390Z,152.10
2019-04-05T21:24:00.256Z,152.20
2019-04-05T21:26:28.846Z,152.10
2019-04-05T21:28:55.945Z,153.80
2019-04-05T21:31:23.103Z,153.18
2019-04-05T21:33:50.179Z,151.72
2019-04-05T21:36:17.253Z,154.27
2019-04-05T21:38:44.308Z,152.32
2019-04-05T21:41:13.231Z,152.53
2019-04-05T21:43:41.490Z,155.50
2019-04-05T21:46:08.620Z,152.57
2019-04-05T21:48:35.647Z,151.57
2019-04-05T21:51:02.853Z,154.25
2019-04-05T21:53:29.881Z,153.30
2019-04-05T21:55:57.295Z,151.27
2019-04-05T21:58:25.966Z,152.27
2019-04-05T22:00:58.938Z,151.93
2019-04-05T22:03:26.607Z,152.93
2019-04-05T22:05:53.643Z,153.10
2019-04-05T22:08:24.089Z,153.60
2019-04-05T22:10:51.194Z,151.35
2019-04-05T22:13:18.273Z,150.85
2019-04-05T22:15:45.323Z,150.90
2019-04-05T22:18:12.564Z,152.32
2019-04-05T22:20:39.624Z,153.07
2019-04-05T22:23:06.972Z,151.72
2019-04-05T22:25:34.146Z,149.57
2019-04-05T22:28:01.180Z,152.85
2019-04-05T22:30:28.231Z,150.87
2019-04-05T22:32:55.343Z,150.55
2019-04-05T22:35:24.189Z,151.27
2019-04-05T22:37:51.492Z,152.22
2019-04-05T22:40:18.560Z,152.45
2019-04-05T22:42:45.661Z,150.07
2019-04-05T22:45:12.727Z,149.93
2019-04-05T22:47:39.901Z,150.72
2019-04-05T22:50:08.834Z,150.05
2019-04-05T22:52:37.012Z,150.32
2019-04-05T22:55:11.228Z,150.53
2019-04-05T22:57:35.152Z,154.18
2019-04-05T23:00:02.442Z,152.87
2019-04-05T23:02:34.247Z,152.75
2019-04-05T23:05:01.819Z,153.57
2019-04-05T23:07:29.852Z,152.55
2019-04-05T23:09:57.252Z,152.30
2019-04-05T23:12:24.376Z,152.30
2019-04-05T23:14:51.408Z,153.82
2019-04-05T23:17:18.986Z,153.12
2019-04-05T23:19:47.761Z,153.38
2019-04-05T23:22:14.989Z,154.35
2019-04-05T23:24:42.043Z,155.03
2019-04-05T23:27:09.186Z,154.50
2019-04-05T23:29:36.232Z,155.37
2019-04-05T23:32:03.305Z,152.90
2019-04-05T23:34:30.344Z,152.95
2019-04-05T23:36:57.476Z,153.47
2019-04-05T23:39:24.594Z,154.27
2019-04-05T23:41:51.641Z,156.22
2019-04-05T23:44:18.902Z,155.05
2019-04-05T23:46:45.946Z,155.57
2019-04-05T23:49:14.132Z,153.75
2019-04-05T23:51:41.407Z,148.97
2019-04-05T23:54:08.441Z,151.50
2019-04-05T23:56:35.482Z,150.25
2019-04-05T23:59:02.554Z,150.62
